Pouch Cove, Canada
Current Conditions -  °F | °C
As of 2:00 AM on Monday 20 Oct 2014 (Local Time) from CYYT Reporting Station
Overcast Overcast  
Wind Chill: 13°   Ceiling: 1400
Heat Index: 13°   Visibility: 15mi
Dew Point: 13°   Wind: 18mph
Humidity: 100%   Direction: 170°S
Pressure: 29.84"   Gusts: 24mph
Location:  47.76°N, 52.76°W
Report Text: CYYT 200400Z 17016G21KT 15SM SCT003 OVC014 13/13 A2984 RMK SF3SC5 VIS LWR SE SLP107
Loading
Personal Weather Stations






























Interactive Weather Map
Tropical Storm Tracking
New forecast layout! Learn more

10-Day Weather Forecast

Advertisements
Track Severe Weather on mobile